Time;durP1;ratioP1;P1;durP2;ratioP2;P2;SDS_P1;SDS_P2;PMS_P1;PMS_P2;Temp;Humidity;BMP_temperature;BMP_pressure;BME280_temperature;BME280_humidity;BME280_pressure;Samples;Min_cycle;Max_cycle;Signal;HPM_P1;HPM_P2
2021/10/16 00:01:30;;;;;;;;;;;;;;;6.10;98.99;100050.63;4970664;28;20037;-80
2021/10/16 00:03:55;;;;;;;;;;;;;;;6.10;98.87;100040.97;4972730;28;19921;-80
2021/10/16 00:06:20;;;;;;;;;;;;;;;6.11;98.79;100041.81;4971824;28;19922;-81
2021/10/16 00:08:46;;;;;;;;;;;;;;;6.13;98.73;100040.03;4968089;28;19929;-81
2021/10/16 00:11:12;;;;;;;;;;;;;;;6.15;98.73;100043.50;4972350;28;19922;-81
2021/10/16 00:13:37;;;;;;;;;;;;;;;6.13;98.47;100035.63;4972925;28;20394;-80
2021/10/16 00:16:03;;;;;;;;;;;;;;;6.15;98.34;100032.97;4972738;28;19933;-80
2021/10/16 00:18:29;;;;;;;;;;;;;;;6.18;98.22;100038.19;4970972;28;19922;-80
2021/10/16 00:20:55;;;;;;;;;;;;;;;6.21;98.19;100042.50;4954923;28;20020;-81
2021/10/16 00:23:21;;;;;;;;;;;;;;;6.20;98.28;100041.63;4953062;28;19949;-81
2021/10/16 00:25:46;;;;;;;;;;;;;;;6.21;98.40;100048.63;4973224;28;20370;-80
2021/10/16 00:28:11;;;;;;;;;;;;;;;6.24;98.52;100045.06;4973287;28;20284;-81
2021/10/16 00:30:37;;;;;;;;;;;;;;;6.24;98.61;100042.41;4972987;28;19933;-80
2021/10/16 00:33:02;;;;;;;;;;;;;;;6.24;98.57;100043.31;4955895;28;19947;-81
2021/10/16 00:35:27;;;;;;;;;;;;;;;6.25;98.75;100045.03;4945208;28;19929;-80
2021/10/16 00:37:52;;;;;;;;;;;;;;;6.28;98.71;100044.97;4954544;28;19965;-81
2021/10/16 00:40:18;;;;;;;;;;;;;;;6.30;98.53;100044.94;4972931;28;19929;-79
2021/10/16 00:42:44;;;;;;;;;;;;;;;6.33;98.58;100042.25;4972823;28;19925;-80
2021/10/16 00:45:10;;;;;;;;;;;;;;;6.31;98.64;100033.53;4972934;28;19918;-80
2021/10/16 00:47:35;;;;;;;;;;;;;;;6.32;98.42;100040.53;4972002;28;19981;-81
2021/10/16 00:50:00;;;;;;;;;;;;;;;6.35;98.34;100040.44;4944600;28;20005;-81
2021/10/16 00:52:25;;;;;;;;;;;;;;;6.38;98.71;100044.78;4971137;28;19982;-81
2021/10/16 00:54:51;;;;;;;;;;;;;;;6.45;98.96;100041.97;4973101;28;19922;-81
2021/10/16 00:57:16;;;;;;;;;;;;;;;6.53;99.18;100031.28;4972929;28;19922;-81
2021/10/16 00:59:42;;;;;;;;;;;;;;;6.55;99.40;100046.13;4955032;28;19922;-81
2021/10/16 01:02:08;;;;;;;;;;;;;;;6.55;99.91;100029.47;4970944;28;19984;-81
2021/10/16 01:04:33;;;;;;;;;;;;;;;6.51;100.00;100041.84;4955417;28;19930;-82
2021/10/16 01:06:59;;;;;;;;;;;;;;;6.42;99.48;100035.94;4955691;28;19922;-81
2021/10/16 01:09:24;;;;;;;;;;;;;;;6.29;99.13;100036.19;4951287;28;20013;-81
2021/10/16 01:11:53;;;;;;;;;;;;;;;6.22;99.21;100026.66;4974221;28;19964;-81
2021/10/16 01:14:19;;;;;;;;;;;;;;;6.10;99.17;100030.44;4973668;28;20386;-81
2021/10/16 01:16:46;;;;;;;;;;;;;;;5.96;98.94;100032.44;4959491;28;19926;-81
2021/10/16 01:19:13;;;;;;;;;;;;;;;5.78;98.56;100025.78;4959228;28;19922;-81
2021/10/16 01:21:42;;;;;;;;;;;;;;;5.67;98.16;100035.66;4959371;28;19922;-81
2021/10/16 01:24:10;;;;;;;;;;;;;;;5.61;98.55;100026.09;4958007;28;20000;-82
2021/10/16 01:26:35;;;;;;;;;;;;;;;5.59;99.46;100030.53;4976566;28;19922;-81
2021/10/16 01:29:01;;;;;;;;;;;;;;;5.61;100.00;100026.97;4948589;28;19925;-80
2021/10/16 01:31:26;;;;;;;;;;;;;;;5.67;100.00;100023.38;4972978;28;20393;-80
2021/10/16 01:33:52;;;;;;;;;;;;;;;5.79;100.00;100023.13;4959077;28;19925;-81
2021/10/16 01:36:17;;;;;;;;;;;;;;;5.93;100.00;100028.09;4959166;28;19914;-79
2021/10/16 01:38:42;;;;;;;;;;;;;;;6.12;100.00;100027.78;4973777;28;20012;-80
2021/10/16 01:41:07;;;;;;;;;;;;;;;6.24;100.00;100024.91;4973433;28;19926;-80
2021/10/16 01:43:33;;;;;;;;;;;;;;;6.39;100.00;100020.19;4975752;28;19922;-80
2021/10/16 01:45:58;;;;;;;;;;;;;;;6.48;100.00;100020.00;4975948;28;19926;-80
2021/10/16 03:16:43;;;;;;;;;;;;;;;7.20;100.00;100033.22;5605889;22;19948;-80
2021/10/16 03:19:08;;;;;;;;;;;;;;;7.20;100.00;100028.81;5023191;28;19922;-80
2021/10/16 03:21:34;;;;;;;;;;;;;;;7.22;100.00;100037.53;5013947;28;20434;-80
2021/10/16 03:23:59;;;;;;;;;;;;;;;7.23;100.00;100027.88;5023477;28;20552;-80
2021/10/16 03:26:24;;;;;;;;;;;;;;;7.24;100.00;100040.13;5023288;28;19918;-80
2021/10/16 03:28:49;;;;;;;;;;;;;;;7.25;100.00;100036.59;5013283;28;20383;-80
2021/10/16 03:31:15;;;;;;;;;;;;;;;7.24;100.00;100029.59;5022084;28;19917;-81
2021/10/16 03:33:40;;;;;;;;;;;;;;;7.29;100.00;100030.34;5023336;28;19929;-80
2021/10/16 03:36:05;;;;;;;;;;;;;;;7.31;100.00;100036.47;5012875;28;19971;-80
2021/10/16 03:38:30;;;;;;;;;;;;;;;7.31;100.00;100023.28;5023053;28;19920;-80
2021/10/16 03:40:56;;;;;;;;;;;;;;;7.35;100.00;100031.97;5019425;28;20053;-80
2021/10/16 03:43:21;;;;;;;;;;;;;;;7.34;100.00;100027.59;4996705;28;19964;-80
2021/10/16 03:45:46;;;;;;;;;;;;;;;7.36;100.00;100026.66;5012168;28;19923;-80
2021/10/16 03:48:11;;;;;;;;;;;;;;;7.36;100.00;100029.28;5013303;28;20399;-80
2021/10/16 03:50:37;;;;;;;;;;;;;;;7.36;100.00;100029.28;5012949;28;19917;-80
2021/10/16 03:53:02;;;;;;;;;;;;;;;6.34;100.00;100034.31;5019768;28;19925;-81
2021/10/16 03:55:27;;;;;;;;;;;;;;;4.90;100.00;100033.44;5022518;28;19922;-80
2021/10/16 03:57:52;;;;;;;;;;;;;;;4.29;100.00;100039.56;5022682;28;20277;-81
2021/10/16 04:00:21;;;;;;;;;;;;;;;3.97;100.00;100033.84;5012936;28;19924;-81
2021/10/16 04:02:52;;;;;;;;;;;;;;;3.80;100.00;100031.41;5012422;28;20353;-81
2021/10/16 04:05:17;;;;;;;;;;;;;;;3.67;100.00;100029.81;5005735;28;19917;-81
2021/10/16 04:07:43;;;;;;;;;;;;;;;3.56;100.00;100036.94;5012587;28;20314;-81
2021/10/16 04:10:08;;;;;;;;;;;;;;;3.44;100.00;100043.16;4996572;28;19921;-81
2021/10/16 04:12:34;;;;;;;;;;;;;;;3.35;100.00;100040.59;5022651;28;19921;-81
2021/10/16 04:14:59;;;;;;;;;;;;;;;3.28;100.00;100043.28;5022256;28;19921;-81
2021/10/16 04:17:24;;;;;;;;;;;;;;;3.23;100.00;100042.47;5020931;28;20012;-81
2021/10/16 04:19:50;;;;;;;;;;;;;;;3.13;100.00;100045.16;5022639;28;19917;-81
2021/10/16 04:22:15;;;;;;;;;;;;;;;3.11;100.00;100045.16;5022668;28;20319;-81
2021/10/16 04:24:40;;;;;;;;;;;;;;;3.00;100.00;100041.78;5022093;28;19918;-80
2021/10/16 04:27:05;;;;;;;;;;;;;;;3.05;100.00;100040.00;5012361;28;20364;-81
2021/10/16 04:29:30;;;;;;;;;;;;;;;3.03;100.00;100041.75;5012796;28;19921;-81
2021/10/16 04:31:56;;;;;;;;;;;;;;;3.02;100.00;100046.13;5020808;28;19918;-81
2021/10/16 04:34:22;;;;;;;;;;;;;;;2.95;100.00;100047.03;5021998;28;20392;-81
2021/10/16 04:36:47;;;;;;;;;;;;;;;2.90;100.00;100046.22;5022323;28;19913;-81
2021/10/16 04:39:12;;;;;;;;;;;;;;;2.83;100.00;100042.78;5012671;28;19921;-81
2021/10/16 04:41:37;;;;;;;;;;;;;;;2.81;100.00;100041.03;5022111;28;20285;-81
2021/10/16 04:44:04;;;;;;;;;;;;;;;2.73;100.00;100034.13;5021641;28;19928;-81
2021/10/16 04:46:29;;;;;;;;;;;;;;;2.72;100.00;100037.63;5010223;28;19917;-81
2021/10/16 04:48:54;;;;;;;;;;;;;;;2.67;100.00;100043.78;5022121;28;19919;-81
2021/10/16 04:51:20;;;;;;;;;;;;;;;2.64;100.00;100044.66;5022248;28;20382;-81
2021/10/16 04:53:45;;;;;;;;;;;;;;;2.57;100.00;100039.47;5012473;28;19921;-81
2021/10/16 04:56:10;;;;;;;;;;;;;;;2.59;100.00;100050.81;5021962;28;20340;-81
2021/10/16 04:58:35;;;;;;;;;;;;;;;2.51;100.00;100043.84;5021785;28;20008;-81
2021/10/16 05:01:00;;;;;;;;;;;;;;;2.52;100.00;100048.22;5011014;28;19926;-81
2021/10/16 05:03:26;;;;;;;;;;;;;;;2.44;100.00;100049.13;5012273;28;19921;-81
2021/10/16 05:05:52;;;;;;;;;;;;;;;2.40;100.00;100047.44;5011971;28;19969;-81
2021/10/16 05:08:18;;;;;;;;;;;;;;;2.39;99.87;100050.91;5021668;28;19922;-81
2021/10/16 05:10:43;;;;;;;;;;;;;;;2.28;99.40;100036.16;5011885;28;19971;-81
2021/10/16 05:13:08;;;;;;;;;;;;;;;2.26;98.75;100040.50;5021763;28;19921;-81
2021/10/16 05:15:33;;;;;;;;;;;;;;;2.27;98.09;100041.38;5020929;28;20272;-81
2021/10/16 05:17:59;;;;;;;;;;;;;;;2.25;97.54;100043.13;5021663;28;19921;-81
2021/10/16 05:20:24;;;;;;;;;;;;;;;2.17;96.73;100037.91;5021698;28;19924;-81
2021/10/16 07:48:16;;;;;;;;;;;;;;;3.55;100.00;100125.13;5664804;23;20426;-81
2021/10/16 07:50:42;;;;;;;;;;;;;;;3.59;100.00;100125.97;4984826;28;19922;-80
2021/10/16 07:53:07;;;;;;;;;;;;;;;3.60;100.00;100133.81;4983482;28;20392;-80
2021/10/16 07:55:32;;;;;;;;;;;;;;;3.64;100.00;100140.78;4980153;28;20017;-80
2021/10/16 07:57:58;;;;;;;;;;;;;;;3.65;100.00;100136.41;4983935;28;19996;-81
2021/10/16 08:00:23;;;;;;;;;;;;;;;3.71;100.00;100136.34;4983557;28;19919;-81
2021/10/16 08:02:48;;;;;;;;;;;;;;;3.76;100.00;100133.69;4981987;28;19926;-80
2021/10/16 08:05:17;;;;;;;;;;;;;;;3.77;100.00;100132.81;4983661;28;19917;-81
2021/10/16 08:07:42;;;;;;;;;;;;;;;3.79;100.00;100133.66;4982937;28;19944;-81
2021/10/16 08:10:08;;;;;;;;;;;;;;;3.81;100.00;100132.78;4967146;28;20587;-80
2021/10/16 08:12:35;;;;;;;;;;;;;;;3.79;100.00;100129.28;4983432;28;19922;-80
2021/10/16 08:15:00;;;;;;;;;;;;;;;3.84;100.00;100131.84;4983779;28;19929;-81
2021/10/16 08:17:26;;;;;;;;;;;;;;;3.92;100.00;100130.03;4981661;28;19931;-80
2021/10/16 08:19:51;;;;;;;;;;;;;;;4.00;100.00;100132.56;4982993;28;19930;-80
2021/10/16 08:22:16;;;;;;;;;;;;;;;3.96;100.00;100128.25;4982635;28;19922;-80
2021/10/16 08:24:43;;;;;;;;;;;;;;;3.95;100.00;100137.00;4983956;28;20328;-81
2021/10/16 08:27:08;;;;;;;;;;;;;;;3.97;100.00;100137.84;4965426;28;20296;-81
2021/10/16 08:29:33;;;;;;;;;;;;;;;3.99;100.00;100133.47;4983116;28;19918;-81
2021/10/16 08:31:59;;;;;;;;;;;;;;;4.00;100.00;100127.31;4988747;28;19976;-82
2021/10/16 08:34:24;;;;;;;;;;;;;;;4.08;100.00;100122.88;4964280;28;19924;-81
2021/10/16 08:36:49;;;;;;;;;;;;;;;4.05;100.00;100136.00;4983429;28;20440;-80
2021/10/16 08:39:14;;;;;;;;;;;;;;;4.16;100.00;100131.53;4982919;28;20028;-81
2021/10/16 08:41:42;;;;;;;;;;;;;;;4.18;100.00;100137.63;4981736;28;20344;-81
2021/10/16 08:44:07;;;;;;;;;;;;;;;4.14;100.00;100135.91;4983180;28;19922;-81
2021/10/16 08:46:39;;;;;;;;;;;;;;;4.27;100.00;100135.78;4982761;28;19918;-81
2021/10/16 08:49:04;;;;;;;;;;;;;;;4.33;100.00;100127.84;4984412;28;19947;-80
2021/10/16 08:51:29;;;;;;;;;;;;;;;4.36;99.25;100133.06;4992461;28;19929;-81
2021/10/16 08:53:55;;;;;;;;;;;;;;;4.38;98.84;100126.03;4992457;28;20419;-81
2021/10/16 08:56:22;;;;;;;;;;;;;;;4.40;98.49;100126.88;4992552;28;19956;-81
2021/10/16 08:58:47;;;;;;;;;;;;;;;4.42;98.23;100126.84;4991876;28;19933;-81
2021/10/16 09:01:13;;;;;;;;;;;;;;;4.47;98.12;100123.31;4992361;28;19925;-81
2021/10/16 09:03:46;;;;;;;;;;;;;;;4.50;97.88;100128.50;4990481;28;19917;-81
2021/10/16 09:06:11;;;;;;;;;;;;;;;4.52;97.45;100121.47;4973349;28;19928;-81
2021/10/16 09:08:39;;;;;;;;;;;;;;;4.58;96.98;100122.28;4992024;28;20079;-81
2021/10/16 09:11:10;;;;;;;;;;;;;;;4.56;96.55;100114.44;4992251;28;19925;-81
2021/10/16 09:13:49;;;;;;;;;;;;;;;4.60;96.41;100121.38;4991858;28;20872;-81
2021/10/16 09:16:22;;;;;;;;;;;;;;;4.62;96.51;100124.00;4991757;28;19972;-81
2021/10/16 09:19:08;;;;;;;;;;;;;;;4.61;96.42;100119.63;4990784;28;19929;-80
2021/10/16 09:21:34;;;;;;;;;;;;;;;4.66;96.18;100118.69;4992091;28;20384;-81
2021/10/16 09:24:04;;;;;;;;;;;;;;;4.67;95.98;100112.53;4992097;28;20016;-81
2021/10/16 09:26:30;;;;;;;;;;;;;;;4.70;95.86;100114.25;4992265;28;19913;-82
2021/10/16 09:29:00;;;;;;;;;;;;;;;4.77;95.69;100110.66;4992217;28;20404;-85
2021/10/16 09:31:30;;;;;;;;;;;;;;;4.80;95.44;100100.09;4991693;28;19922;-83
2021/10/16 09:33:55;;;;;;;;;;;;;;;4.79;95.46;100106.25;4993245;28;19921;-83
2021/10/16 09:36:24;;;;;;;;;;;;;;;4.85;95.31;100103.56;4995920;28;19914;-82
2021/10/16 09:38:49;;;;;;;;;;;;;;;4.88;95.17;100100.00;4977450;28;19925;-84
2021/10/16 09:41:21;;;;;;;;;;;;;;;4.93;95.12;100105.19;4995935;28;19917;-83
2021/10/16 09:43:46;;;;;;;;;;;;;;;4.93;94.97;100099.94;4995728;28;19968;-82
2021/10/16 09:46:15;;;;;;;;;;;;;;;4.95;94.80;100099.03;4995826;28;20455;-83
2021/10/16 09:48:41;;;;;;;;;;;;;;;4.95;94.55;100096.41;4994098;28;19926;-83
2021/10/16 09:51:06;;;;;;;;;;;;;;;5.02;94.65;100095.41;4995629;28;20610;-83
2021/10/16 09:53:31;;;;;;;;;;;;;;;5.04;94.69;100084.88;4995566;28;19918;-83
2021/10/16 09:55:57;;;;;;;;;;;;;;;5.04;94.46;100087.50;4995455;28;19941;-83
2021/10/16 09:58:24;;;;;;;;;;;;;;;5.06;94.65;100081.34;4995576;28;19965;-82
2021/10/16 10:00:52;;;;;;;;;;;;;;;5.10;94.69;100082.16;4995384;28;20012;-83
2021/10/16 10:03:19;;;;;;;;;;;;;;;5.14;94.60;100083.84;4993726;28;19932;-83
2021/10/16 10:05:44;;;;;;;;;;;;;;;5.17;94.66;100083.81;4994624;28;19922;-84
2021/10/16 10:08:10;;;;;;;;;;;;;;;5.16;94.35;100084.69;4995307;28;19922;-83
2021/10/16 10:10:35;;;;;;;;;;;;;;;5.18;94.62;100075.00;4995248;28;19917;-83
2021/10/16 10:13:01;;;;;;;;;;;;;;;5.21;94.52;100077.59;4995136;28;20359;-83
2021/10/16 10:15:26;;;;;;;;;;;;;;;5.24;94.69;100072.28;4995069;28;19922;-83
2021/10/16 10:17:52;;;;;;;;;;;;;;;5.23;94.57;100067.94;4993746;28;20274;-83
2021/10/16 10:20:18;;;;;;;;;;;;;;;5.25;94.53;100070.56;4995000;28;19922;-83
2021/10/16 10:22:47;;;;;;;;;;;;;;;5.28;94.52;100068.72;4994860;28;19918;-82
2021/10/16 10:25:25;;;;;;;;;;;;;;;5.35;94.55;100061.59;4994379;28;20299;-83
2021/10/16 10:27:51;;;;;;;;;;;;;;;5.33;94.63;100062.50;4994562;28;19922;-82
2021/10/16 10:30:35;;;;;;;;;;;;;;;5.36;94.74;100068.59;4994034;28;20336;-82
2021/10/16 10:33:21;;;;;;;;;;;;;;;5.38;94.82;100071.22;4993387;28;20015;-83
2021/10/16 10:35:47;;;;;;;;;;;;;;;5.42;94.92;100059.72;4994037;28;19922;-83
2021/10/16 10:38:29;;;;;;;;;;;;;;;5.44;95.14;100058.81;4994821;28;20439;-82
2021/10/16 10:40:54;;;;;;;;;;;;;;;5.47;95.33;100060.50;4994466;28;20384;-83
2021/10/16 10:43:37;;;;;;;;;;;;;;;5.52;95.42;100053.44;4994599;28;19921;-82
2021/10/16 10:46:14;;;;;;;;;;;;;;;5.52;95.50;100053.44;4993212;28;19977;-83
2021/10/16 10:48:47;;;;;;;;;;;;;;;5.52;95.61;100056.06;4992488;28;19928;-81
2021/10/16 10:51:28;;;;;;;;;;;;;;;5.55;95.87;100056.03;4994113;28;20012;-83
2021/10/16 10:54:08;;;;;;;;;;;;;;;5.59;95.81;100054.19;4994257;28;20369;-83
2021/10/16 10:56:38;;;;;;;;;;;;;;;5.59;95.78;100054.19;4994499;28;19968;-84
2021/10/16 10:59:04;;;;;;;;;;;;;;;5.62;95.88;100054.13;4993986;28;19918;-83
2021/10/16 11:01:49;;;;;;;;;;;;;;;5.64;95.89;100047.94;4993604;28;19925;-82
2021/10/16 11:04:33;;;;;;;;;;;;;;;5.65;96.04;100046.19;4992870;28;19922;-83
2021/10/16 11:07:00;;;;;;;;;;;;;;;5.67;96.21;100054.06;4994029;28;20373;-84
2021/10/16 11:09:26;;;;;;;;;;;;;;;5.70;96.28;100051.38;4994088;28;19918;-83
2021/10/16 11:11:52;;;;;;;;;;;;;;;5.72;96.36;100050.44;4994058;28;19922;-83
2021/10/16 11:14:18;;;;;;;;;;;;;;;5.75;96.57;100044.25;4993964;28;19957;-83
2021/10/16 11:16:56;;;;;;;;;;;;;;;5.74;96.71;100048.63;4992910;28;20344;-84
2021/10/16 11:19:21;;;;;;;;;;;;;;;5.78;96.70;100044.19;4992815;28;19964;-83
2021/10/16 11:21:54;;;;;;;;;;;;;;;5.81;97.00;100049.41;4993475;28;19930;-83
2021/10/16 11:24:20;;;;;;;;;;;;;;;5.82;97.13;100041.50;4993700;28;20284;-84
2021/10/16 11:26:52;;;;;;;;;;;;;;;5.89;97.32;100041.34;4993358;28;20013;-83
2021/10/16 11:29:50;;;;;;;;;;;;;;;5.88;97.23;100034.38;4993081;28;20347;-82
2021/10/16 11:32:22;;;;;;;;;;;;;;;5.93;97.31;100032.50;4949108;28;19922;-82
2021/10/16 11:34:56;;;;;;;;;;;;;;;5.91;97.25;100034.31;4993022;28;19981;-83
2021/10/16 11:37:32;;;;;;;;;;;;;;;5.91;97.40;100037.78;4993201;28;19968;-84
2021/10/16 11:40:03;;;;;;;;;;;;;;;5.91;97.58;100022.00;4993076;28;19930;-83
2021/10/16 11:42:28;;;;;;;;;;;;;;;5.94;97.80;100021.09;4993499;28;19917;-83
2021/10/16 11:44:54;;;;;;;;;;;;;;;5.97;97.88;100019.28;4993270;28;19926;-84
2021/10/16 11:47:20;;;;;;;;;;;;;;;5.98;98.05;100021.03;4992259;28;19917;-83
2021/10/16 11:49:45;;;;;;;;;;;;;;;6.02;98.41;100020.97;4993231;28;19969;-83
2021/10/16 11:52:24;;;;;;;;;;;;;;;6.04;98.38;100014.78;4974932;28;20068;-83
2021/10/16 11:55:08;;;;;;;;;;;;;;;6.06;98.35;100010.34;4993220;28;19918;-83
2021/10/16 11:57:33;;;;;;;;;;;;;;;6.07;98.34;100008.59;4992488;28;20013;-83
2021/10/16 12:00:14;;;;;;;;;;;;;;;6.08;98.61;99999.78;4993202;28;19997;-83
2021/10/16 12:02:39;;;;;;;;;;;;;;;6.10;98.87;100003.28;4991684;28;19922;-82
2021/10/16 12:05:11;;;;;;;;;;;;;;;6.13;98.92;100000.56;4993062;28;19917;-82
2021/10/16 12:07:36;;;;;;;;;;;;;;;6.15;98.94;99997.00;4992582;28;20458;-82
2021/10/16 12:10:20;;;;;;;;;;;;;;;6.17;99.08;99997.84;4992850;28;19917;-83
2021/10/16 12:12:58;;;;;;;;;;;;;;;6.18;99.08;99998.72;4993042;28;19922;-84
2021/10/16 12:15:34;;;;;;;;;;;;;;;6.20;99.42;99994.25;4992893;28;19925;-82
2021/10/16 12:18:00;;;;;;;;;;;;;;;6.23;99.35;99994.19;4991410;28;20012;-83
2021/10/16 12:20:27;;;;;;;;;;;;;;;6.24;99.27;99985.41;4993064;28;19953;-82
2021/10/16 12:22:55;;;;;;;;;;;;;;;6.26;99.16;99978.34;4992901;28;20395;-83
2021/10/16 12:25:20;;;;;;;;;;;;;;;6.26;99.28;99978.34;4992861;28;19937;-82
2021/10/16 12:27:57;;;;;;;;;;;;;;;6.29;99.53;99977.44;4974845;28;20384;-83
2021/10/16 12:30:22;;;;;;;;;;;;;;;6.31;99.59;99975.63;4992907;28;19924;-82
2021/10/16 12:33:07;;;;;;;;;;;;;;;6.31;99.71;99965.94;4991579;28;19922;-83
2021/10/16 12:35:33;;;;;;;;;;;;;;;6.34;99.76;99965.88;4992794;28;19917;-83
2021/10/16 12:38:00;;;;;;;;;;;;;;;6.37;100.00;99964.97;4992647;28;20317;-82
2021/10/16 12:40:36;;;;;;;;;;;;;;;6.38;100.00;99956.13;4992637;28;20060;-83
2021/10/16 12:43:01;;;;;;;;;;;;;;;6.40;100.00;99956.09;4992364;28;20436;-83
2021/10/16 12:45:40;;;;;;;;;;;;;;;6.41;100.00;99953.44;4990520;28;19922;-82
2021/10/16 12:48:21;;;;;;;;;;;;;;;6.43;100.00;99962.19;4991375;28;20285;-82
2021/10/16 12:50:54;;;;;;;;;;;;;;;6.46;100.00;99966.50;5011137;28;19960;-83
2021/10/16 12:53:19;;;;;;;;;;;;;;;6.55;100.00;99958.38;5011425;28;19921;-83
2021/10/16 12:55:45;;;;;;;;;;;;;;;6.61;100.00;99962.66;5012120;28;19914;-82
2021/10/16 12:58:10;;;;;;;;;;;;;;;6.63;100.00;99959.06;5012073;28;20464;-82
2021/10/16 13:00:37;;;;;;;;;;;;;;;6.64;100.00;99958.19;5010931;28;20012;-85
2021/10/16 13:03:03;;;;;;;;;;;;;;;6.62;100.00;99960.00;4992500;28;20325;-83
2021/10/16 13:05:29;;;;;;;;;;;;;;;6.59;100.00;99953.91;5010992;28;20328;-83
2021/10/16 13:07:55;;;;;;;;;;;;;;;6.49;100.00;99955.91;5013220;28;19920;-83
2021/10/16 13:10:20;;;;;;;;;;;;;;;6.29;100.00;99957.22;5016172;28;20020;-83
2021/10/16 13:12:45;;;;;;;;;;;;;;;6.09;99.24;99955.03;5015855;28;19917;-83
2021/10/16 13:15:11;;;;;;;;;;;;;;;5.81;97.90;99960.00;5015898;28;20020;-83
2021/10/16 13:17:36;;;;;;;;;;;;;;;5.58;96.67;99953.41;5013223;28;19917;-83
2021/10/16 13:20:02;;;;;;;;;;;;;;;5.50;96.79;99952.69;5015669;28;20566;-82
2021/10/16 13:22:28;;;;;;;;;;;;;;;5.52;97.75;99945.69;5014520;28;19961;-84
2021/10/16 13:24:53;;;;;;;;;;;;;;;5.59;99.74;99941.16;5015773;28;20390;-83
2021/10/16 13:27:18;;;;;;;;;;;;;;;5.74;100.00;99948.72;5015604;28;19917;-83
2021/10/16 13:29:44;;;;;;;;;;;;;;;5.95;100.00;99949.16;4998112;28;19924;-83
2021/10/16 13:32:13;;;;;;;;;;;;;;;6.16;100.00;99946.13;5015369;28;20052;-83
2021/10/16 13:34:38;;;;;;;;;;;;;;;6.35;100.00;99938.66;5014402;28;20288;-83
2021/10/16 13:37:04;;;;;;;;;;;;;;;6.50;100.00;99936.56;5015487;28;19918;-83
2021/10/16 13:39:29;;;;;;;;;;;;;;;6.59;100.00;99940.75;5015452;28;19950;-83
2021/10/16 13:41:55;;;;;;;;;;;;;;;6.65;100.00;99943.22;4997793;28;19949;-83
2021/10/16 13:44:20;;;;;;;;;;;;;;;6.69;100.00;99934.38;5015263;28;19924;-83
2021/10/16 13:46:45;;;;;;;;;;;;;;;6.72;100.00;99939.56;4997650;28;19922;-83
2021/10/16 13:49:11;;;;;;;;;;;;;;;6.75;100.00;99933.34;5009783;28;19922;-83
2021/10/16 13:51:36;;;;;;;;;;;;;;;6.79;100.00;99935.00;5005838;28;19926;-83
2021/10/16 13:54:03;;;;;;;;;;;;;;;6.84;100.00;99935.75;5002925;28;19925;-83
2021/10/16 13:56:29;;;;;;;;;;;;;;;6.87;100.00;99939.16;5005343;28;19918;-83
2021/10/16 13:58:54;;;;;;;;;;;;;;;6.89;100.00;99937.38;5004128;28;19929;-83
2021/10/16 14:01:19;;;;;;;;;;;;;;;6.90;100.00;99932.97;5005334;28;19917;-83
2021/10/16 14:03:45;;;;;;;;;;;;;;;6.91;100.00;99939.97;5004376;28;19921;-84
2021/10/16 14:06:10;;;;;;;;;;;;;;;6.94;100.00;99926.72;5005085;28;19925;-84
2021/10/16 14:08:35;;;;;;;;;;;;;;;6.97;100.00;99937.16;5004961;28;20004;-83
2021/10/16 14:11:01;;;;;;;;;;;;;;;6.99;100.00;99935.38;5004977;28;19918;-83
2021/10/16 14:13:26;;;;;;;;;;;;;;;7.00;100.00;99929.16;5005542;28;19925;-83
2021/10/16 14:15:51;;;;;;;;;;;;;;;7.00;100.00;99926.53;5004446;28;19917;-83
2021/10/16 14:18:17;;;;;;;;;;;;;;;7.05;100.00;99929.94;5003888;28;20377;-84
2021/10/16 14:20:42;;;;;;;;;;;;;;;7.06;100.00;99928.16;5003971;28;19918;-85
2021/10/16 14:23:07;;;;;;;;;;;;;;;7.08;100.00;99929.88;4994101;28;19917;-83
2021/10/16 14:25:32;;;;;;;;;;;;;;;6.87;100.00;99922.50;4985418;28;19924;-83
2021/10/16 14:27:58;;;;;;;;;;;;;;;5.09;100.00;99934.19;4984668;28;20008;-83
2021/10/16 14:30:25;;;;;;;;;;;;;;;4.29;100.00;99932.00;4985464;28;19972;-84
2021/10/16 14:32:50;;;;;;;;;;;;;;;3.87;100.00;99929.13;4984038;28;19929;-83
2021/10/16 14:35:16;;;;;;;;;;;;;;;3.68;100.00;99934.56;4984832;28;19918;-84
2021/10/16 14:37:41;;;;;;;;;;;;;;;3.51;100.00;99936.53;4984935;28;19917;-84
2021/10/16 14:40:06;;;;;;;;;;;;;;;3.36;100.00;99938.44;4984874;28;19953;-83
2021/10/16 14:42:31;;;;;;;;;;;;;;;3.31;100.00;99937.63;4984971;28;19925;-83
2021/10/16 14:44:57;;;;;;;;;;;;;;;3.23;100.00;99935.09;4984508;28;20034;-83
2021/10/16 14:47:22;;;;;;;;;;;;;;;3.15;100.00;99936.06;4983651;28;19921;-83
2021/10/16 14:49:47;;;;;;;;;;;;;;;3.01;100.00;99942.28;4997477;28;19926;-83
2021/10/16 14:52:12;;;;;;;;;;;;;;;2.91;100.00;99940.66;5004402;28;19925;-84
2021/10/16 14:54:38;;;;;;;;;;;;;;;2.87;100.00;99931.06;5004486;28;20008;-83
2021/10/16 14:57:03;;;;;;;;;;;;;;;2.84;100.00;99937.22;5004354;28;19913;-83
2021/10/16 14:59:28;;;;;;;;;;;;;;;2.71;99.82;99936.47;5004246;28;19921;-84
2021/10/16 15:01:53;;;;;;;;;;;;;;;2.66;99.34;99939.97;5004015;28;19914;-84
2021/10/16 15:04:19;;;;;;;;;;;;;;;2.70;99.35;99945.19;5002325;28;19924;-82
2021/10/16 15:06:44;;;;;;;;;;;;;;;2.65;98.73;99940.84;5004086;28;19923;-84
2021/10/16 15:09:09;;;;;;;;;;;;;;;2.62;98.11;99941.75;5004243;28;19918;-82
2021/10/16 15:11:34;;;;;;;;;;;;;;;2.56;97.25;99947.03;5003542;28;19917;-83
2021/10/16 15:14:00;;;;;;;;;;;;;;;2.56;97.06;99941.81;5003689;28;19922;-83
2021/10/16 15:16:27;;;;;;;;;;;;;;;2.51;96.53;99943.59;5003688;28;19914;-83
2021/10/16 15:18:52;;;;;;;;;;;;;;;2.44;96.20;99947.13;5002820;28;19918;-83
2021/10/16 15:21:18;;;;;;;;;;;;;;;2.40;95.58;99937.56;5004545;28;20376;-84
2021/10/16 15:23:44;;;;;;;;;;;;;;;2.34;95.15;99935.84;5003646;28;20588;-83
2021/10/16 15:26:09;;;;;;;;;;;;;;;2.33;95.07;99940.22;5003413;28;19918;-83
2021/10/16 15:28:35;;;;;;;;;;;;;;;2.29;94.79;99938.50;5003614;28;19921;-83
2021/10/16 15:31:01;;;;;;;;;;;;;;;2.19;94.33;99936.84;5003617;28;19929;-83
2021/10/16 15:33:26;;;;;;;;;;;;;;;2.17;93.97;99930.72;5002420;28;19971;-83
2021/10/16 15:35:52;;;;;;;;;;;;;;;2.14;94.08;99928.16;4986254;28;20359;-83
2021/10/16 15:38:20;;;;;;;;;;;;;;;2.20;93.69;99932.47;5003431;28;19921;-83
2021/10/16 15:40:45;;;;;;;;;;;;;;;2.12;93.48;99929.91;5003296;28;19928;-83
2021/10/16 15:43:10;;;;;;;;;;;;;;;2.10;93.13;99923.81;4986011;28;20372;-83
2021/10/16 15:45:35;;;;;;;;;;;;;;;2.02;92.86;99923.84;5003558;28;19961;-83
2021/10/16 15:48:01;;;;;;;;;;;;;;;1.98;92.56;99920.41;5001539;28;19917;-83
2021/10/16 15:50:29;;;;;;;;;;;;;;;1.97;92.71;99930.88;5003017;28;19931;-83
2021/10/16 15:52:55;;;;;;;;;;;;;;;1.91;92.41;99915.22;5003245;28;19953;-83
2021/10/16 15:55:20;;;;;;;;;;;;;;;1.92;92.21;99923.03;5002824;28;20004;-83
2021/10/16 15:57:48;;;;;;;;;;;;;;;1.84;92.01;99924.84;5003382;28;19926;-83
2021/10/16 16:00:13;;;;;;;;;;;;;;;1.84;91.63;99919.59;5002709;28;19926;-83
2021/10/16 16:02:39;;;;;;;;;;;;;;;1.79;91.76;99922.25;5001639;28;20291;-83
2021/10/16 16:05:04;;;;;;;;;;;;;;;1.79;91.32;99921.38;5002980;28;19922;-83
2021/10/16 16:07:29;;;;;;;;;;;;;;;1.75;91.50;99923.13;5003073;28;19921;-83
2021/10/16 16:09:55;;;;;;;;;;;;;;;1.75;90.82;99920.50;5003176;28;20266;-83
2021/10/16 16:12:20;;;;;;;;;;;;;;;1.72;91.06;99915.28;5003411;28;19922;-83
2021/10/16 16:14:45;;;;;;;;;;;;;;;1.68;90.59;99915.34;4985167;28;19924;-83
2021/10/16 16:17:10;;;;;;;;;;;;;;;1.74;90.66;99916.19;5003435;28;19918;-83
2021/10/16 16:19:36;;;;;;;;;;;;;;;1.75;90.39;99906.59;5001206;28;19918;-83
2021/10/16 16:22:01;;;;;;;;;;;;;;;1.85;92.10;99907.41;5002916;28;20150;-83
2021/10/16 16:24:26;;;;;;;;;;;;;;;2.12;94.29;99914.22;5001412;28;19943;-82
2021/10/16 16:26:52;;;;;;;;;;;;;;;2.31;98.03;99910.63;5002442;28;19918;-83
2021/10/16 16:29:17;;;;;;;;;;;;;;;2.57;100.00;99906.94;4984707;28;19922;-83
2021/10/16 16:31:42;;;;;;;;;;;;;;;2.76;100.00;99911.97;5002800;28;19921;-84
2021/10/16 16:34:07;;;;;;;;;;;;;;;2.88;100.00;99911.88;5001348;28;20391;-83
2021/10/16 16:36:33;;;;;;;;;;;;;;;2.88;100.00;99907.50;5002310;28;19921;-83
2021/10/16 16:38:58;;;;;;;;;;;;;;;2.97;100.00;99909.19;5002300;28;19928;-83